sensor_id;sensor_type;location;lat;lon;timestamp;temperature;humidity
3940;DHT22;1984;48.312;9.244;2023-03-21T00:01:23;6.70;99.90
3940;DHT22;1984;48.312;9.244;2023-03-21T00:03:48;6.70;99.90
3940;DHT22;1984;48.312;9.244;2023-03-21T00:06:15;6.70;99.90
3940;DHT22;1984;48.312;9.244;2023-03-21T00:08:41;6.70;99.90
3940;DHT22;1984;48.312;9.244;2023-03-21T00:11:08;6.60;99.90
3940;DHT22;1984;48.312;9.244;2023-03-21T00:13:35;6.60;99.90
3940;DHT22;1984;48.312;9.244;2023-03-21T00:16:06;6.60;99.90
3940;DHT22;1984;48.312;9.244;2023-03-21T00:18:33;6.60;99.90
3940;DHT22;1984;48.312;9.244;2023-03-21T00:21:04;6.50;99.90
3940;DHT22;1984;48.312;9.244;2023-03-21T00:23:31;6.50;99.90
3940;DHT22;1984;48.312;9.244;2023-03-21T00:25:57;6.50;99.90
3940;DHT22;1984;48.312;9.244;2023-03-21T00:28:23;6.50;99.90
3940;DHT22;1984;48.312;9.244;2023-03-21T00:30:50;6.50;99.90
3940;DHT22;1984;48.312;9.244;2023-03-21T00:33:16;6.40;99.90
3940;DHT22;1984;48.312;9.244;2023-03-21T00:35:45;6.30;99.90
3940;DHT22;1984;48.312;9.244;2023-03-21T00:38:13;6.30;99.90
3940;DHT22;1984;48.312;9.244;2023-03-21T00:40:38;6.20;99.90
3940;DHT22;1984;48.312;9.244;2023-03-21T00:43:04;6.20;99.90
3940;DHT22;1984;48.312;9.244;2023-03-21T00:45:30;6.20;99.90
3940;DHT22;1984;48.312;9.244;2023-03-21T00:47:56;6.20;99.90
3940;DHT22;1984;48.312;9.244;2023-03-21T00:50:22;6.20;99.90
3940;DHT22;1984;48.312;9.244;2023-03-21T00:52:48;6.20;99.90
3940;DHT22;1984;48.312;9.244;2023-03-21T00:55:15;6.20;99.90
3940;DHT22;1984;48.312;9.244;2023-03-21T00:57:40;6.20;99.90
3940;DHT22;1984;48.312;9.244;2023-03-21T01:00:08;6.20;99.90
3940;DHT22;1984;48.312;9.244;2023-03-21T01:02:35;6.20;99.90
3940;DHT22;1984;48.312;9.244;2023-03-21T01:05:03;6.20;99.90
3940;DHT22;1984;48.312;9.244;2023-03-21T01:07:29;6.20;99.90
3940;DHT22;1984;48.312;9.244;2023-03-21T01:09:54;6.20;99.90
3940;DHT22;1984;48.312;9.244;2023-03-21T01:12:20;6.30;99.90
3940;DHT22;1984;48.312;9.244;2023-03-21T01:14:46;6.20;99.90
3940;DHT22;1984;48.312;9.244;2023-03-21T01:17:11;6.20;99.90
3940;DHT22;1984;48.312;9.244;2023-03-21T01:19:37;6.30;99.90
3940;DHT22;1984;48.312;9.244;2023-03-21T01:22:03;6.20;99.90
3940;DHT22;1984;48.312;9.244;2023-03-21T01:24:28;6.20;99.90
3940;DHT22;1984;48.312;9.244;2023-03-21T01:26:54;6.20;99.90
3940;DHT22;1984;48.312;9.244;2023-03-21T01:29:20;6.20;99.90
3940;DHT22;1984;48.312;9.244;2023-03-21T01:31:45;6.20;99.90
3940;DHT22;1984;48.312;9.244;2023-03-21T01:34:11;6.30;99.90
3940;DHT22;1984;48.312;9.244;2023-03-21T01:36:37;6.30;99.90
3940;DHT22;1984;48.312;9.244;2023-03-21T01:39:03;6.30;99.90
3940;DHT22;1984;48.312;9.244;2023-03-21T01:41:33;6.30;99.90
3940;DHT22;1984;48.312;9.244;2023-03-21T01:43:59;6.30;99.90
3940;DHT22;1984;48.312;9.244;2023-03-21T01:46:35;6.20;99.90
3940;DHT22;1984;48.312;9.244;2023-03-21T01:51:38;6.10;99.90
3940;DHT22;1984;48.312;9.244;2023-03-21T01:54:06;6.10;99.90
3940;DHT22;1984;48.312;9.244;2023-03-21T01:56:35;6.10;99.90
3940;DHT22;1984;48.312;9.244;2023-03-21T01:59:07;6.00;99.90
3940;DHT22;1984;48.312;9.244;2023-03-21T02:01:35;6.10;99.90
3940;DHT22;1984;48.312;9.244;2023-03-21T02:04:03;6.10;99.90
3940;DHT22;1984;48.312;9.244;2023-03-21T02:06:59;6.10;99.90
3940;DHT22;1984;48.312;9.244;2023-03-21T02:09:31;6.10;99.90
3940;DHT22;1984;48.312;9.244;2023-03-21T02:11:59;6.00;99.90
3940;DHT22;1984;48.312;9.244;2023-03-21T02:14:24;6.00;99.90
3940;DHT22;1984;48.312;9.244;2023-03-21T02:17:04;6.00;99.90
3940;DHT22;1984;48.312;9.244;2023-03-21T02:22:52;6.00;99.90
3940;DHT22;1984;48.312;9.244;2023-03-21T02:33:36;6.00;99.90
3940;DHT22;1984;48.312;9.244;2023-03-21T02:36:15;5.90;99.90
3940;DHT22;1984;48.312;9.244;2023-03-21T02:38:51;5.90;99.90
3940;DHT22;1984;48.312;9.244;2023-03-21T02:41:35;5.70;99.90
3940;DHT22;1984;48.312;9.244;2023-03-21T02:47:07;5.60;99.90
3940;DHT22;1984;48.312;9.244;2023-03-21T02:49:45;5.60;99.90
3940;DHT22;1984;48.312;9.244;2023-03-21T02:52:19;5.70;99.90
3940;DHT22;1984;48.312;9.244;2023-03-21T02:54:48;5.70;99.90
3940;DHT22;1984;48.312;9.244;2023-03-21T02:57:17;5.80;99.90
3940;DHT22;1984;48.312;9.244;2023-03-21T02:59:45;5.80;99.90
3940;DHT22;1984;48.312;9.244;2023-03-21T03:02:12;5.80;99.90
3940;DHT22;1984;48.312;9.244;2023-03-21T03:04:38;5.70;99.90
3940;DHT22;1984;48.312;9.244;2023-03-21T03:07:27;5.70;99.90
3940;DHT22;1984;48.312;9.244;2023-03-21T03:13:22;5.80;99.90
3940;DHT22;1984;48.312;9.244;2023-03-21T03:16:37;5.80;99.90
3940;DHT22;1984;48.312;9.244;2023-03-21T03:18:46;5.80;99.90
3940;DHT22;1984;48.312;9.244;2023-03-21T03:21:32;5.80;99.90
3940;DHT22;1984;48.312;9.244;2023-03-21T03:24:31;5.80;99.90
3940;DHT22;1984;48.312;9.244;2023-03-21T03:27:12;5.90;99.90
3940;DHT22;1984;48.312;9.244;2023-03-21T03:29:40;5.90;99.90
3940;DHT22;1984;48.312;9.244;2023-03-21T03:34:58;5.90;99.90
3940;DHT22;1984;48.312;9.244;2023-03-21T03:37:27;5.90;99.90
3940;DHT22;1984;48.312;9.244;2023-03-21T03:40:17;5.80;99.90
3940;DHT22;1984;48.312;9.244;2023-03-21T03:42:46;5.80;99.90
3940;DHT22;1984;48.312;9.244;2023-03-21T03:45:12;5.80;99.90
3940;DHT22;1984;48.312;9.244;2023-03-21T03:50:37;5.80;99.90
3940;DHT22;1984;48.312;9.244;2023-03-21T03:53:15;5.80;99.90
3940;DHT22;1984;48.312;9.244;2023-03-21T03:55:42;5.80;99.90
3940;DHT22;1984;48.312;9.244;2023-03-21T03:58:08;5.80;99.90
3940;DHT22;1984;48.312;9.244;2023-03-21T04:00:35;5.80;99.90
3940;DHT22;1984;48.312;9.244;2023-03-21T04:03:01;5.90;99.90
3940;DHT22;1984;48.312;9.244;2023-03-21T04:05:27;5.90;99.90
3940;DHT22;1984;48.312;9.244;2023-03-21T04:07:52;5.90;99.90
3940;DHT22;1984;48.312;9.244;2023-03-21T04:10:19;5.90;99.90
3940;DHT22;1984;48.312;9.244;2023-03-21T04:12:46;5.90;99.90
3940;DHT22;1984;48.312;9.244;2023-03-21T04:15:11;5.90;99.90
3940;DHT22;1984;48.312;9.244;2023-03-21T04:17:37;6.00;99.90
3940;DHT22;1984;48.312;9.244;2023-03-21T04:20:04;6.00;99.90
3940;DHT22;1984;48.312;9.244;2023-03-21T04:22:31;6.00;99.90
3940;DHT22;1984;48.312;9.244;2023-03-21T04:24:57;6.00;99.90
3940;DHT22;1984;48.312;9.244;2023-03-21T04:27:23;6.00;99.90
3940;DHT22;1984;48.312;9.244;2023-03-21T04:29:49;6.00;99.90
3940;DHT22;1984;48.312;9.244;2023-03-21T04:32:14;6.00;99.90
3940;DHT22;1984;48.312;9.244;2023-03-21T04:34:44;6.00;99.90
3940;DHT22;1984;48.312;9.244;2023-03-21T04:37:16;6.10;99.90
3940;DHT22;1984;48.312;9.244;2023-03-21T04:39:42;6.00;99.90
3940;DHT22;1984;48.312;9.244;2023-03-21T04:42:07;6.00;99.90
3940;DHT22;1984;48.312;9.244;2023-03-21T04:44:33;6.00;99.90
3940;DHT22;1984;48.312;9.244;2023-03-21T04:46:58;5.90;99.90
3940;DHT22;1984;48.312;9.244;2023-03-21T04:49:24;5.90;99.90
3940;DHT22;1984;48.312;9.244;2023-03-21T04:51:50;5.80;99.90
3940;DHT22;1984;48.312;9.244;2023-03-21T04:54:15;5.70;99.90
3940;DHT22;1984;48.312;9.244;2023-03-21T04:56:41;5.60;99.90
3940;DHT22;1984;48.312;9.244;2023-03-21T04:59:14;5.50;99.90
3940;DHT22;1984;48.312;9.244;2023-03-21T05:01:40;5.50;99.90
3940;DHT22;1984;48.312;9.244;2023-03-21T05:04:08;5.50;99.90
3940;DHT22;1984;48.312;9.244;2023-03-21T05:06:34;5.50;99.90
3940;DHT22;1984;48.312;9.244;2023-03-21T05:09:02;5.50;99.90
3940;DHT22;1984;48.312;9.244;2023-03-21T05:11:32;5.50;99.90
3940;DHT22;1984;48.312;9.244;2023-03-21T05:14:00;5.50;99.90
3940;DHT22;1984;48.312;9.244;2023-03-21T05:16:26;5.60;99.90
3940;DHT22;1984;48.312;9.244;2023-03-21T05:18:56;5.50;99.90
3940;DHT22;1984;48.312;9.244;2023-03-21T05:21:23;5.60;99.90
3940;DHT22;1984;48.312;9.244;2023-03-21T05:23:49;5.60;99.90
3940;DHT22;1984;48.312;9.244;2023-03-21T05:26:20;5.60;99.90
3940;DHT22;1984;48.312;9.244;2023-03-21T05:28:46;5.70;99.90
3940;DHT22;1984;48.312;9.244;2023-03-21T05:31:13;5.70;99.90
3940;DHT22;1984;48.312;9.244;2023-03-21T05:33:41;5.70;99.90
3940;DHT22;1984;48.312;9.244;2023-03-21T05:36:07;5.70;99.90
3940;DHT22;1984;48.312;9.244;2023-03-21T05:38:33;5.70;99.90
3940;DHT22;1984;48.312;9.244;2023-03-21T05:40:59;5.80;99.90
3940;DHT22;1984;48.312;9.244;2023-03-21T05:43:25;5.80;99.90
3940;DHT22;1984;48.312;9.244;2023-03-21T05:45:50;5.80;99.90
3940;DHT22;1984;48.312;9.244;2023-03-21T05:48:16;5.80;99.90
3940;DHT22;1984;48.312;9.244;2023-03-21T05:50:42;5.80;99.90
3940;DHT22;1984;48.312;9.244;2023-03-21T05:53:08;5.90;99.90
3940;DHT22;1984;48.312;9.244;2023-03-21T05:55:34;6.00;99.90
3940;DHT22;1984;48.312;9.244;2023-03-21T05:57:59;6.00;99.90
3940;DHT22;1984;48.312;9.244;2023-03-21T06:00:25;6.00;99.90
3940;DHT22;1984;48.312;9.244;2023-03-21T06:02:51;6.10;99.90
3940;DHT22;1984;48.312;9.244;2023-03-21T06:05:16;6.20;99.90
3940;DHT22;1984;48.312;9.244;2023-03-21T06:07:42;6.20;99.90
3940;DHT22;1984;48.312;9.244;2023-03-21T06:10:08;6.30;99.90
3940;DHT22;1984;48.312;9.244;2023-03-21T06:12:34;6.40;99.90
3940;DHT22;1984;48.312;9.244;2023-03-21T06:14:59;6.50;99.90
3940;DHT22;1984;48.312;9.244;2023-03-21T06:17:26;6.60;99.90
3940;DHT22;1984;48.312;9.244;2023-03-21T06:19:51;6.70;99.90
3940;DHT22;1984;48.312;9.244;2023-03-21T06:22:17;6.70;99.90
3940;DHT22;1984;48.312;9.244;2023-03-21T06:24:42;6.70;99.90
3940;DHT22;1984;48.312;9.244;2023-03-21T06:27:08;6.70;99.90
3940;DHT22;1984;48.312;9.244;2023-03-21T06:29:34;6.80;99.90
3940;DHT22;1984;48.312;9.244;2023-03-21T06:31:59;6.80;99.90
3940;DHT22;1984;48.312;9.244;2023-03-21T06:34:25;6.80;99.90
3940;DHT22;1984;48.312;9.244;2023-03-21T06:36:51;6.80;99.90
3940;DHT22;1984;48.312;9.244;2023-03-21T06:39:19;6.80;99.90
3940;DHT22;1984;48.312;9.244;2023-03-21T06:41:45;6.90;99.90
3940;DHT22;1984;48.312;9.244;2023-03-21T06:44:10;6.90;99.90
3940;DHT22;1984;48.312;9.244;2023-03-21T06:46:36;7.10;99.90
3940;DHT22;1984;48.312;9.244;2023-03-21T06:49:02;7.30;99.90
3940;DHT22;1984;48.312;9.244;2023-03-21T06:51:27;7.30;99.90
3940;DHT22;1984;48.312;9.244;2023-03-21T06:53:53;7.30;99.90
3940;DHT22;1984;48.312;9.244;2023-03-21T06:56:18;7.40;99.90
3940;DHT22;1984;48.312;9.244;2023-03-21T06:58:44;7.60;99.90
3940;DHT22;1984;48.312;9.244;2023-03-21T07:01:10;7.70;99.90
3940;DHT22;1984;48.312;9.244;2023-03-21T07:03:36;7.80;99.90
3940;DHT22;1984;48.312;9.244;2023-03-21T07:06:07;7.90;99.90
3940;DHT22;1984;48.312;9.244;2023-03-21T07:08:36;7.80;99.90
3940;DHT22;1984;48.312;9.244;2023-03-21T07:11:02;8.00;99.90
3940;DHT22;1984;48.312;9.244;2023-03-21T07:13:28;8.20;99.90
3940;DHT22;1984;48.312;9.244;2023-03-21T07:15:54;8.70;99.90
3940;DHT22;1984;48.312;9.244;2023-03-21T07:18:19;9.10;99.90
3940;DHT22;1984;48.312;9.244;2023-03-21T07:20:46;9.40;99.90
3940;DHT22;1984;48.312;9.244;2023-03-21T07:23:20;9.80;99.90
3940;DHT22;1984;48.312;9.244;2023-03-21T07:25:48;10.50;99.90
3940;DHT22;1984;48.312;9.244;2023-03-21T07:28:14;11.50;99.90
3940;DHT22;1984;48.312;9.244;2023-03-21T07:30:41;12.50;99.90
3940;DHT22;1984;48.312;9.244;2023-03-21T07:33:07;12.80;99.90
3940;DHT22;1984;48.312;9.244;2023-03-21T07:35:33;12.70;99.90
3940;DHT22;1984;48.312;9.244;2023-03-21T07:37:58;12.40;99.90
3940;DHT22;1984;48.312;9.244;2023-03-21T07:40:24;12.10;99.90
3940;DHT22;1984;48.312;9.244;2023-03-21T07:42:50;12.10;99.90
3940;DHT22;1984;48.312;9.244;2023-03-21T07:45:16;12.90;99.90
3940;DHT22;1984;48.312;9.244;2023-03-21T07:47:46;13.40;99.90
3940;DHT22;1984;48.312;9.244;2023-03-21T07:50:12;13.50;99.90
3940;DHT22;1984;48.312;9.244;2023-03-21T07:52:38;13.50;99.90
3940;DHT22;1984;48.312;9.244;2023-03-21T07:55:04;13.80;99.90
3940;DHT22;1984;48.312;9.244;2023-03-21T07:57:30;14.10;99.90
3940;DHT22;1984;48.312;9.244;2023-03-21T07:59:55;14.00;99.90
3940;DHT22;1984;48.312;9.244;2023-03-21T08:02:21;14.30;99.90
3940;DHT22;1984;48.312;9.244;2023-03-21T08:04:46;15.00;99.90
3940;DHT22;1984;48.312;9.244;2023-03-21T08:07:12;15.60;99.90
3940;DHT22;1984;48.312;9.244;2023-03-21T08:09:38;16.10;99.90
3940;DHT22;1984;48.312;9.244;2023-03-21T08:12:04;17.10;99.90
3940;DHT22;1984;48.312;9.244;2023-03-21T08:14:30;17.90;99.90
3940;DHT22;1984;48.312;9.244;2023-03-21T08:16:56;18.50;99.90
3940;DHT22;1984;48.312;9.244;2023-03-21T08:19:21;19.00;99.90
3940;DHT22;1984;48.312;9.244;2023-03-21T08:21:48;19.50;99.90
3940;DHT22;1984;48.312;9.244;2023-03-21T08:24:14;19.70;99.70
3940;DHT22;1984;48.312;9.244;2023-03-21T08:26:40;20.40;98.90
3940;DHT22;1984;48.312;9.244;2023-03-21T08:31:32;21.80;94.30
3940;DHT22;1984;48.312;9.244;2023-03-21T08:33:58;22.70;93.90
3940;DHT22;1984;48.312;9.244;2023-03-21T08:36:24;23.10;91.50
3940;DHT22;1984;48.312;9.244;2023-03-21T08:38:49;23.00;90.20
3940;DHT22;1984;48.312;9.244;2023-03-21T08:41:19;22.60;90.10
3940;DHT22;1984;48.312;9.244;2023-03-21T08:43:47;21.90;90.10
3940;DHT22;1984;48.312;9.244;2023-03-21T08:46:12;21.20;90.50
3940;DHT22;1984;48.312;9.244;2023-03-21T08:48:39;20.40;91.30
3940;DHT22;1984;48.312;9.244;2023-03-21T08:51:05;19.50;92.80
3940;DHT22;1984;48.312;9.244;2023-03-21T08:56:43;18.50;94.40
3940;DHT22;1984;48.312;9.244;2023-03-21T08:59:09;19.00;94.70
3940;DHT22;1984;48.312;9.244;2023-03-21T09:01:36;19.50;94.00
3940;DHT22;1984;48.312;9.244;2023-03-21T09:04:02;20.30;92.90
3940;DHT22;1984;48.312;9.244;2023-03-21T09:19:19;24.50;84.10
3940;DHT22;1984;48.312;9.244;2023-03-21T09:21:46;25.20;78.50
3940;DHT22;1984;48.312;9.244;2023-03-21T09:24:12;25.70;79.50
3940;DHT22;1984;48.312;9.244;2023-03-21T09:29:04;26.10;72.50
3940;DHT22;1984;48.312;9.244;2023-03-21T09:31:30;26.40;73.90
3940;DHT22;1984;48.312;9.244;2023-03-21T09:33:56;26.10;73.90
3940;DHT22;1984;48.312;9.244;2023-03-21T09:36:22;25.50;73.20
3940;DHT22;1984;48.312;9.244;2023-03-21T09:38:50;24.80;74.50
3940;DHT22;1984;48.312;9.244;2023-03-21T09:44:31;21.90;78.50
3940;DHT22;1984;48.312;9.244;2023-03-21T09:47:21;20.60;83.80
3940;DHT22;1984;48.312;9.244;2023-03-21T09:52:42;18.80;90.70
3940;DHT22;1984;48.312;9.244;2023-03-21T09:55:31;18.70;90.50
3940;DHT22;1984;48.312;9.244;2023-03-21T10:00:49;19.80;90.00
3940;DHT22;1984;48.312;9.244;2023-03-21T10:03:23;20.30;87.60
3940;DHT22;1984;48.312;9.244;2023-03-21T10:05:52;21.10;87.30
3940;DHT22;1984;48.312;9.244;2023-03-21T10:08:29;21.90;84.00
3940;DHT22;1984;48.312;9.244;2023-03-21T10:11:04;22.90;80.90
3940;DHT22;1984;48.312;9.244;2023-03-21T10:13:48;23.80;80.80
3940;DHT22;1984;48.312;9.244;2023-03-21T10:16:18;24.50;79.40
3940;DHT22;1984;48.312;9.244;2023-03-21T10:18:45;24.30;76.20
3940;DHT22;1984;48.312;9.244;2023-03-21T10:21:21;24.40;75.50
3940;DHT22;1984;48.312;9.244;2023-03-21T10:23:50;24.20;76.70
3940;DHT22;1984;48.312;9.244;2023-03-21T10:26:18;24.30;75.50
3940;DHT22;1984;48.312;9.244;2023-03-21T10:28:44;24.60;73.80
3940;DHT22;1984;48.312;9.244;2023-03-21T10:31:15;24.80;72.30
3940;DHT22;1984;48.312;9.244;2023-03-21T10:33:44;24.80;73.70
3940;DHT22;1984;48.312;9.244;2023-03-21T10:38:44;25.10;70.90
3940;DHT22;1984;48.312;9.244;2023-03-21T10:41:10;24.80;72.30
3940;DHT22;1984;48.312;9.244;2023-03-21T10:43:37;24.40;73.90
3940;DHT22;1984;48.312;9.244;2023-03-21T10:46:15;23.90;71.30
3940;DHT22;1984;48.312;9.244;2023-03-21T10:48:42;22.70;75.00
3940;DHT22;1984;48.312;9.244;2023-03-21T10:51:16;22.00;77.00
3940;DHT22;1984;48.312;9.244;2023-03-21T10:53:58;22.00;78.00
3940;DHT22;1984;48.312;9.244;2023-03-21T10:56:30;21.80;78.70
3940;DHT22;1984;48.312;9.244;2023-03-21T10:58:58;21.40;78.40
3940;DHT22;1984;48.312;9.244;2023-03-21T11:01:33;20.90;80.50
3940;DHT22;1984;48.312;9.244;2023-03-21T11:04:05;20.70;81.70
3940;DHT22;1984;48.312;9.244;2023-03-21T11:06:37;20.50;81.70
3940;DHT22;1984;48.312;9.244;2023-03-21T11:09:18;20.30;81.70
3940;DHT22;1984;48.312;9.244;2023-03-21T11:11:51;20.10;82.00
3940;DHT22;1984;48.312;9.244;2023-03-21T11:14:46;19.50;82.20
3940;DHT22;1984;48.312;9.244;2023-03-21T11:19:50;18.00;86.00
3940;DHT22;1984;48.312;9.244;2023-03-21T11:22:18;17.60;89.20
3940;DHT22;1984;48.312;9.244;2023-03-21T11:24:53;17.50;88.60
3940;DHT22;1984;48.312;9.244;2023-03-21T11:27:22;17.40;88.70
3940;DHT22;1984;48.312;9.244;2023-03-21T11:29:50;17.40;90.30
3940;DHT22;1984;48.312;9.244;2023-03-21T11:32:36;17.60;89.30
3940;DHT22;1984;48.312;9.244;2023-03-21T11:35:06;17.60;88.00
3940;DHT22;1984;48.312;9.244;2023-03-21T11:37:44;17.60;87.80
3940;DHT22;1984;48.312;9.244;2023-03-21T11:40:23;17.70;88.70
3940;DHT22;1984;48.312;9.244;2023-03-21T11:42:52;17.60;86.90
3940;DHT22;1984;48.312;9.244;2023-03-21T11:45:25;17.70;87.40
3940;DHT22;1984;48.312;9.244;2023-03-21T11:47:54;17.70;88.20
3940;DHT22;1984;48.312;9.244;2023-03-21T11:50:36;17.80;86.40
3940;DHT22;1984;48.312;9.244;2023-03-21T11:53:37;17.40;87.50
3940;DHT22;1984;48.312;9.244;2023-03-21T11:56:19;17.30;88.50
3940;DHT22;1984;48.312;9.244;2023-03-21T11:59:10;17.00;87.90
3940;DHT22;1984;48.312;9.244;2023-03-21T12:05:02;17.10;89.60
3940;DHT22;1984;48.312;9.244;2023-03-21T12:16:52;17.10;88.90
3940;DHT22;1984;48.312;9.244;2023-03-21T12:24:21;16.60;89.50
3940;DHT22;1984;48.312;9.244;2023-03-21T12:35:30;16.50;90.20
3940;DHT22;1984;48.312;9.244;2023-03-21T12:38:16;16.60;90.60
3940;DHT22;1984;48.312;9.244;2023-03-21T12:43:47;16.60;90.20
3940;DHT22;1984;48.312;9.244;2023-03-21T12:46:34;16.60;88.90
3940;DHT22;1984;48.312;9.244;2023-03-21T12:51:50;16.30;89.00
3940;DHT22;1984;48.312;9.244;2023-03-21T12:54:27;16.30;89.40
3940;DHT22;1984;48.312;9.244;2023-03-21T12:57:17;16.30;90.60
3940;DHT22;1984;48.312;9.244;2023-03-21T13:02:36;16.50;89.70
3940;DHT22;1984;48.312;9.244;2023-03-21T13:05:21;16.60;88.30
3940;DHT22;1984;48.312;9.244;2023-03-21T13:08:05;16.70;84.40
3940;DHT22;1984;48.312;9.244;2023-03-21T13:10:32;16.80;86.40
3940;DHT22;1984;48.312;9.244;2023-03-21T13:18:24;16.90;86.40
3940;DHT22;1984;48.312;9.244;2023-03-21T13:21:03;17.00;85.40
3940;DHT22;1984;48.312;9.244;2023-03-21T13:23:35;17.00;84.80
3940;DHT22;1984;48.312;9.244;2023-03-21T13:26:02;17.00;83.10
3940;DHT22;1984;48.312;9.244;2023-03-21T13:28:30;17.10;85.80
3940;DHT22;1984;48.312;9.244;2023-03-21T13:33:45;17.40;84.30
3940;DHT22;1984;48.312;9.244;2023-03-21T13:36:14;17.50;84.30
3940;DHT22;1984;48.312;9.244;2023-03-21T13:38:40;17.40;83.00
3940;DHT22;1984;48.312;9.244;2023-03-21T13:41:14;17.20;83.70
3940;DHT22;1984;48.312;9.244;2023-03-21T13:48:59;16.80;84.70
3940;DHT22;1984;48.312;9.244;2023-03-21T13:56:53;16.30;87.70
3940;DHT22;1984;48.312;9.244;2023-03-21T13:59:42;16.50;85.80
3940;DHT22;1984;48.312;9.244;2023-03-21T14:04:37;16.50;86.90
3940;DHT22;1984;48.312;9.244;2023-03-21T14:07:22;16.50;86.90
3940;DHT22;1984;48.312;9.244;2023-03-21T14:09:51;16.60;87.10
3940;DHT22;1984;48.312;9.244;2023-03-21T14:12:26;16.70;86.50
3940;DHT22;1984;48.312;9.244;2023-03-21T14:14:58;16.70;87.90
3940;DHT22;1984;48.312;9.244;2023-03-21T14:17:30;16.70;87.70
3940;DHT22;1984;48.312;9.244;2023-03-21T14:20:05;16.80;87.30
3940;DHT22;1984;48.312;9.244;2023-03-21T14:22:37;16.70;87.80
3940;DHT22;1984;48.312;9.244;2023-03-21T14:25:05;16.70;90.20
3940;DHT22;1984;48.312;9.244;2023-03-21T14:27:33;16.70;89.70
3940;DHT22;1984;48.312;9.244;2023-03-21T14:30:00;16.70;89.80
3940;DHT22;1984;48.312;9.244;2023-03-21T14:32:28;16.70;89.30
3940;DHT22;1984;48.312;9.244;2023-03-21T14:34:55;16.70;88.40
3940;DHT22;1984;48.312;9.244;2023-03-21T14:37:26;16.60;88.60
3940;DHT22;1984;48.312;9.244;2023-03-21T14:40:17;16.50;89.00
3940;DHT22;1984;48.312;9.244;2023-03-21T14:42:46;16.50;88.30
3940;DHT22;1984;48.312;9.244;2023-03-21T14:45:27;16.50;89.70
3940;DHT22;1984;48.312;9.244;2023-03-21T14:50:29;16.50;89.80
3940;DHT22;1984;48.312;9.244;2023-03-21T14:52:56;16.50;89.60
3940;DHT22;1984;48.312;9.244;2023-03-21T14:55:22;16.40;88.60
3940;DHT22;1984;48.312;9.244;2023-03-21T14:57:48;16.30;88.90
3940;DHT22;1984;48.312;9.244;2023-03-21T15:00:28;16.20;88.80
3940;DHT22;1984;48.312;9.244;2023-03-21T15:02:57;16.10;89.50
3940;DHT22;1984;48.312;9.244;2023-03-21T15:05:32;16.10;90.50
3940;DHT22;1984;48.312;9.244;2023-03-21T15:10:39;16.00;90.40
3940;DHT22;1984;48.312;9.244;2023-03-21T15:13:13;16.00;91.10
3940;DHT22;1984;48.312;9.244;2023-03-21T15:15:40;15.90;91.20
3940;DHT22;1984;48.312;9.244;2023-03-21T15:18:06;15.80;92.00
3940;DHT22;1984;48.312;9.244;2023-03-21T15:20:35;15.80;92.50
3940;DHT22;1984;48.312;9.244;2023-03-21T15:23:11;15.90;93.20
3940;DHT22;1984;48.312;9.244;2023-03-21T15:25:40;15.80;93.10
3940;DHT22;1984;48.312;9.244;2023-03-21T15:28:06;15.80;92.50
3940;DHT22;1984;48.312;9.244;2023-03-21T15:30:32;15.70;92.60
3940;DHT22;1984;48.312;9.244;2023-03-21T15:35:39;15.60;92.60
3940;DHT22;1984;48.312;9.244;2023-03-21T15:38:05;15.50;92.50
3940;DHT22;1984;48.312;9.244;2023-03-21T15:40:33;15.40;92.30
3940;DHT22;1984;48.312;9.244;2023-03-21T15:43:14;15.30;91.80
3940;DHT22;1984;48.312;9.244;2023-03-21T15:45:47;15.20;91.70
3940;DHT22;1984;48.312;9.244;2023-03-21T15:48:14;15.10;92.10
3940;DHT22;1984;48.312;9.244;2023-03-21T15:50:50;15.10;92.10
3940;DHT22;1984;48.312;9.244;2023-03-21T15:53:18;15.00;91.90
3940;DHT22;1984;48.312;9.244;2023-03-21T15:55:49;14.90;92.30
3940;DHT22;1984;48.312;9.244;2023-03-21T15:58:19;14.70;92.30
3940;DHT22;1984;48.312;9.244;2023-03-21T16:00:52;14.70;92.60
3940;DHT22;1984;48.312;9.244;2023-03-21T16:03:21;14.60;93.00
3940;DHT22;1984;48.312;9.244;2023-03-21T16:06:21;14.50;93.20
3940;DHT22;1984;48.312;9.244;2023-03-21T16:08:52;14.40;93.50
3940;DHT22;1984;48.312;9.244;2023-03-21T16:13:47;14.40;93.80
3940;DHT22;1984;48.312;9.244;2023-03-21T16:16:18;14.40;94.00
3940;DHT22;1984;48.312;9.244;2023-03-21T16:18:44;14.40;93.90
3940;DHT22;1984;48.312;9.244;2023-03-21T16:21:15;14.40;94.30
3940;DHT22;1984;48.312;9.244;2023-03-21T16:23:41;14.40;94.50
3940;DHT22;1984;48.312;9.244;2023-03-21T16:26:10;14.40;94.50
3940;DHT22;1984;48.312;9.244;2023-03-21T16:28:37;14.40;94.60
3940;DHT22;1984;48.312;9.244;2023-03-21T16:31:02;14.40;94.70
3940;DHT22;1984;48.312;9.244;2023-03-21T16:33:28;14.40;94.90
3940;DHT22;1984;48.312;9.244;2023-03-21T16:35:53;14.40;94.60
3940;DHT22;1984;48.312;9.244;2023-03-21T16:38:22;14.50;94.90
3940;DHT22;1984;48.312;9.244;2023-03-21T16:40:48;14.50;95.10
3940;DHT22;1984;48.312;9.244;2023-03-21T16:43:13;14.40;94.80
3940;DHT22;1984;48.312;9.244;2023-03-21T16:45:39;14.40;95.10
3940;DHT22;1984;48.312;9.244;2023-03-21T16:48:05;14.30;95.00
3940;DHT22;1984;48.312;9.244;2023-03-21T16:50:41;14.30;95.10
3940;DHT22;1984;48.312;9.244;2023-03-21T16:53:07;14.10;95.40
3940;DHT22;1984;48.312;9.244;2023-03-21T16:55:34;14.10;95.50
3940;DHT22;1984;48.312;9.244;2023-03-21T16:58:02;14.10;95.70
3940;DHT22;1984;48.312;9.244;2023-03-21T17:00:28;14.00;96.00
3940;DHT22;1984;48.312;9.244;2023-03-21T17:02:56;13.90;96.00
3940;DHT22;1984;48.312;9.244;2023-03-21T17:05:25;13.90;96.30
3940;DHT22;1984;48.312;9.244;2023-03-21T17:07:54;13.90;96.40
3940;DHT22;1984;48.312;9.244;2023-03-21T17:10:23;13.80;96.20
3940;DHT22;1984;48.312;9.244;2023-03-21T17:12:49;13.80;96.60
3940;DHT22;1984;48.312;9.244;2023-03-21T17:15:15;13.70;97.10
3940;DHT22;1984;48.312;9.244;2023-03-21T17:17:41;13.70;97.70
3940;DHT22;1984;48.312;9.244;2023-03-21T17:20:22;13.70;98.00
3940;DHT22;1984;48.312;9.244;2023-03-21T17:22:48;13.50;98.00
3940;DHT22;1984;48.312;9.244;2023-03-21T17:25:15;13.40;98.40
3940;DHT22;1984;48.312;9.244;2023-03-21T17:27:41;13.40;98.60
3940;DHT22;1984;48.312;9.244;2023-03-21T17:30:31;13.30;99.20
3940;DHT22;1984;48.312;9.244;2023-03-21T17:32:57;13.20;99.30
3940;DHT22;1984;48.312;9.244;2023-03-21T17:35:23;13.20;99.60
3940;DHT22;1984;48.312;9.244;2023-03-21T17:37:50;13.20;99.70
3940;DHT22;1984;48.312;9.244;2023-03-21T17:40:22;13.10;99.90
3940;DHT22;1984;48.312;9.244;2023-03-21T17:42:49;13.00;99.90
3940;DHT22;1984;48.312;9.244;2023-03-21T17:45:15;13.00;99.90
3940;DHT22;1984;48.312;9.244;2023-03-21T17:47:41;12.90;99.90
3940;DHT22;1984;48.312;9.244;2023-03-21T17:50:18;12.80;99.90
3940;DHT22;1984;48.312;9.244;2023-03-21T17:52:45;12.70;99.90
3940;DHT22;1984;48.312;9.244;2023-03-21T17:55:11;12.50;99.90
3940;DHT22;1984;48.312;9.244;2023-03-21T17:57:37;12.40;99.90
3940;DHT22;1984;48.312;9.244;2023-03-21T18:00:05;12.40;99.90
3940;DHT22;1984;48.312;9.244;2023-03-21T18:02:36;12.40;99.90
3940;DHT22;1984;48.312;9.244;2023-03-21T18:05:02;12.30;99.90
3940;DHT22;1984;48.312;9.244;2023-03-21T18:07:27;12.20;99.90
3940;DHT22;1984;48.312;9.244;2023-03-21T18:09:53;12.20;99.90
3940;DHT22;1984;48.312;9.244;2023-03-21T18:12:19;12.10;99.90
3940;DHT22;1984;48.312;9.244;2023-03-21T18:14:46;12.10;99.90
3940;DHT22;1984;48.312;9.244;2023-03-21T18:17:11;12.10;99.90
3940;DHT22;1984;48.312;9.244;2023-03-21T18:19:37;12.10;99.90
3940;DHT22;1984;48.312;9.244;2023-03-21T18:22:02;12.00;99.90
3940;DHT22;1984;48.312;9.244;2023-03-21T18:24:28;11.90;99.90
3940;DHT22;1984;48.312;9.244;2023-03-21T18:26:54;11.80;99.90
3940;DHT22;1984;48.312;9.244;2023-03-21T18:29:19;11.70;99.90
3940;DHT22;1984;48.312;9.244;2023-03-21T18:31:45;11.70;99.90